Terminal Aerodrome Forecast
Issued by NWS Memphis, TN

Home | Current Version | Previous Version | Text Only | Print | Product List | Glossary On
Versions: 1 2 3 4 5 6 7 8 9 10 11 12 13 14 15 16
000
FTUS44 KMEG 010538
TAFJBR
TAF
KJBR 010538Z 0106/0206 03004KT P6SM VCSH SCT040 OVC060
      WS020/18050KT
      TEMPO 0106/0110 -FZRAPL
     FM011030 04004KT 6SM -SHRA SCT015 OVC040
     FM011400 VRB03KT 5SM -SHRA BR BKN010 OVC035
     FM011900 02005KT 4SM -SHRA OVC008
     FM020000 02007KT P6SM VCSH OVC010=

USA.gov is the U.S. government's official web portal to all federal, state and local government web resources and services.